LPMASBFL

Guest
Details From LPMA - Madeira
To SBFL - Hercillo Luz
Flight Number -
Tags Generated
Created
Modified
Stats Distance 4,054 nm / 7,507 km
Max Altitude 0 ft / 0 m
Waypoints 5
Social Downloads 0
Likes 0
Share VATSIM

Download

Looking for another format? Having issues loading an existing format? Contact us
Advertisement - Login to hide

Notes

Generated

Route

LPMA ARENA ANISE XRO SBFL

ID Type Via Altitude Latitude Longitude Leg Dist Tot Dist Heading (true) Name
O LPMA APT - 0 ft / 0 m 32.68900˚ -16.78409˚ - 0 nm - -
ARENA FIX - 0 ft / 0 m -21.02667˚ -44.78250˚ 3604 nm 3604 nm 210° / 207° -
ANISE FIX - 0 ft / 0 m -24.60208˚ -46.62525˚ 237 nm 3841 nm 205° / 206° -
XRO VOR - 0 ft / 0 m -27.67033˚ -48.54667˚ 211 nm 4053 nm 209° / 210° FLORIANOPOLIS VOR-DME
O SBFL APT - 0 ft / 0 m -27.67664˚ -48.55458˚ 0 nm 4053 nm 228° / 228° -

Altitude Profile

Advertisement - Login to hide

Weather


0- 5 10 15 20 25 30 35+ Temperature / ° C

Clouds and Precipitation
Forecast for 2017-12-16 00:00 UTC. Updated 32 minutes ago

Ground ~20,000 ft ~40,000 ft Winds

LPMA

Details ICAO LPMA (FNC)
Name Madeira
Region Portugal
Timezone Atlantic/Madeira (UTC+0.0)
Stats Elevation 192 ft / 59 m (AMSL)
Location 32.697704° -16.774449°
Runways 1
Magnetic Variation 4.981° W

METAR

LPMA 151930Z 22003KT 190V320 9999 SCT013 SCT030 19/15 Q1024

Decode

TAF

TAF LPMA 151710Z 1518/1618 VRB05KT 9999 SCT015 TEMPO 1518/1618 35010KT SCT013 BKN060 PROB30 TEMPO 1518/1618 6000 -RA BKN013

Decode

Departure Runways

ID Width Length Bearing (true) Bearing (mag) Surface Threshold Offset Overrun Length
05 141 ft / 43 m 8,683 ft / 2,647 m 42.98° 47.96° Asphalt 472 ft / 144 m 0 ft / 0 m
23 141 ft / 43 m 8,683 ft / 2,647 m 222.99° 227.97° Asphalt 466 ft / 142 m 0 ft / 0 m

SBFL

Details ICAO SBFL (FLN)
Name Hercillo Luz
Region Brazil
Timezone America/Sao_Paulo (UTC-2.0)
Stats Elevation 19 ft / 6 m (AMSL)
Location -27.670487° -48.547180°
Runways 2
Magnetic Variation 19.321° W

METAR

SBFL 151900Z 35010KT 9999 SCT030 FEW035TCU 26/22 Q1011

Decode

TAF

TAF SBFL 151500Z 1518/1618 03005KT 9999 FEW025 TX29/1518Z TN21/1609Z PROB30 1518/1521 8000 SHRA SCT030 FEW035TCU BECMG 1612/1616 36010KT RMK PDN

Decode

Destination Runways

ID Width Length Bearing (true) Bearing (mag) Surface Threshold Offset Overrun Length
03 148 ft / 45 m 4,939 ft / 1,505 m 11.55° 30.87° Concrete 0 ft / 0 m 0 ft / 0 m
14 148 ft / 45 m 7,543 ft / 2,299 m 121.30° 140.62° Asphalt 720 ft / 219 m 0 ft / 0 m
21 148 ft / 45 m 4,939 ft / 1,505 m 191.55° 210.87° Concrete 0 ft / 0 m 0 ft / 0 m
32 148 ft / 45 m 7,543 ft / 2,299 m 301.29° 320.61° Asphalt 0 ft / 0 m 200 ft / 61 m

Approach Navaids

Runway Type Ident Frequency Range Bearing (true) Bearing (mag) Slope Elevation
14 Localiser IFL 110.30 MHz 18 nm / 33 km 121.67° 140.99° - 19 ft / 6 m (AMSL)
14 Glidescope IFL 110.30 MHz 10 nm / 19 km 121.29° 140.61° 3.00° 19 ft / 6 m (AMSL)